sensor_id;sensor_type;location;lat;lon;timestamp;temperature;humidity
57434;DHT22;43277;52.672;6.984;2023-02-12T00:00:21;7.40;99.90
57434;DHT22;43277;52.672;6.984;2023-02-12T00:02:46;7.40;99.90
57434;DHT22;43277;52.672;6.984;2023-02-12T00:05:12;7.40;99.90
57434;DHT22;43277;52.672;6.984;2023-02-12T00:07:40;7.40;99.90
57434;DHT22;43277;52.672;6.984;2023-02-12T00:10:06;7.40;99.90
57434;DHT22;43277;52.672;6.984;2023-02-12T00:12:33;7.30;99.90
57434;DHT22;43277;52.672;6.984;2023-02-12T00:14:59;7.40;99.90
57434;DHT22;43277;52.672;6.984;2023-02-12T00:17:24;7.40;99.90
57434;DHT22;43277;52.672;6.984;2023-02-12T00:19:50;7.30;99.90
57434;DHT22;43277;52.672;6.984;2023-02-12T00:22:16;7.30;99.90
57434;DHT22;43277;52.672;6.984;2023-02-12T00:24:41;7.30;99.90
57434;DHT22;43277;52.672;6.984;2023-02-12T00:27:07;7.30;99.90
57434;DHT22;43277;52.672;6.984;2023-02-12T00:29:32;7.30;99.90
57434;DHT22;43277;52.672;6.984;2023-02-12T00:31:58;7.30;99.90
57434;DHT22;43277;52.672;6.984;2023-02-12T00:34:24;7.30;99.90
57434;DHT22;43277;52.672;6.984;2023-02-12T00:36:49;7.30;99.90
57434;DHT22;43277;52.672;6.984;2023-02-12T00:39:15;7.30;99.90
57434;DHT22;43277;52.672;6.984;2023-02-12T00:41:40;7.30;99.90
57434;DHT22;43277;52.672;6.984;2023-02-12T00:44:06;7.20;99.90
57434;DHT22;43277;52.672;6.984;2023-02-12T00:46:32;7.20;99.90
57434;DHT22;43277;52.672;6.984;2023-02-12T00:48:57;7.20;99.90
57434;DHT22;43277;52.672;6.984;2023-02-12T00:51:23;7.30;99.90
57434;DHT22;43277;52.672;6.984;2023-02-12T00:53:48;7.20;99.90
57434;DHT22;43277;52.672;6.984;2023-02-12T00:56:14;7.20;99.90
57434;DHT22;43277;52.672;6.984;2023-02-12T00:58:40;7.20;99.90
57434;DHT22;43277;52.672;6.984;2023-02-12T01:01:05;7.10;99.90
57434;DHT22;43277;52.672;6.984;2023-02-12T01:03:31;7.20;99.90
57434;DHT22;43277;52.672;6.984;2023-02-12T01:05:56;7.20;99.90
57434;DHT22;43277;52.672;6.984;2023-02-12T01:08:22;7.10;99.90
57434;DHT22;43277;52.672;6.984;2023-02-12T01:11:00;7.20;99.90
57434;DHT22;43277;52.672;6.984;2023-02-12T01:13:26;7.20;99.90
57434;DHT22;43277;52.672;6.984;2023-02-12T01:16:04;7.20;99.90
57434;DHT22;43277;52.672;6.984;2023-02-12T01:18:33;7.10;99.90
57434;DHT22;43277;52.672;6.984;2023-02-12T01:20:59;7.10;99.90
57434;DHT22;43277;52.672;6.984;2023-02-12T01:23:25;7.10;99.90
57434;DHT22;43277;52.672;6.984;2023-02-12T01:25:51;7.10;99.90
57434;DHT22;43277;52.672;6.984;2023-02-12T01:28:17;7.10;99.90
57434;DHT22;43277;52.672;6.984;2023-02-12T01:30:42;7.10;99.90
57434;DHT22;43277;52.672;6.984;2023-02-12T01:33:08;7.10;99.90
57434;DHT22;43277;52.672;6.984;2023-02-12T01:35:35;7.10;99.90
57434;DHT22;43277;52.672;6.984;2023-02-12T01:38:01;7.10;99.90
57434;DHT22;43277;52.672;6.984;2023-02-12T01:40:27;7.10;99.90
57434;DHT22;43277;52.672;6.984;2023-02-12T01:42:53;7.10;99.90
57434;DHT22;43277;52.672;6.984;2023-02-12T01:47:47;7.00;99.90
57434;DHT22;43277;52.672;6.984;2023-02-12T01:50:17;7.10;99.90
57434;DHT22;43277;52.672;6.984;2023-02-12T01:52:49;7.10;99.90
57434;DHT22;43277;52.672;6.984;2023-02-12T01:55:16;7.10;99.90
57434;DHT22;43277;52.672;6.984;2023-02-12T01:57:44;7.00;99.90
57434;DHT22;43277;52.672;6.984;2023-02-12T02:00:18;7.00;99.90
57434;DHT22;43277;52.672;6.984;2023-02-12T02:02:48;7.00;99.90
57434;DHT22;43277;52.672;6.984;2023-02-12T02:08:06;7.00;99.90
57434;DHT22;43277;52.672;6.984;2023-02-12T02:10:33;7.00;99.90
57434;DHT22;43277;52.672;6.984;2023-02-12T02:12:58;6.90;99.90
57434;DHT22;43277;52.672;6.984;2023-02-12T02:15:46;6.90;99.90
57434;DHT22;43277;52.672;6.984;2023-02-12T02:18:29;6.90;99.90
57434;DHT22;43277;52.672;6.984;2023-02-12T02:29:23;6.90;99.90
57434;DHT22;43277;52.672;6.984;2023-02-12T02:32:01;6.80;99.90
57434;DHT22;43277;52.672;6.984;2023-02-12T02:39:46;6.80;99.90
57434;DHT22;43277;52.672;6.984;2023-02-12T02:42:21;6.90;99.90
57434;DHT22;43277;52.672;6.984;2023-02-12T02:44:52;6.80;99.90
57434;DHT22;43277;52.672;6.984;2023-02-12T02:47:22;6.80;99.90
57434;DHT22;43277;52.672;6.984;2023-02-12T02:49:56;6.80;99.90
57434;DHT22;43277;52.672;6.984;2023-02-12T02:52:46;6.90;99.90
57434;DHT22;43277;52.672;6.984;2023-02-12T02:55:16;6.90;99.90
57434;DHT22;43277;52.672;6.984;2023-02-12T02:57:56;6.80;99.90
57434;DHT22;43277;52.672;6.984;2023-02-12T03:00:33;6.90;99.90
57434;DHT22;43277;52.672;6.984;2023-02-12T03:03:10;6.80;99.90
57434;DHT22;43277;52.672;6.984;2023-02-12T03:05:43;6.80;99.90
57434;DHT22;43277;52.672;6.984;2023-02-12T03:08:14;6.80;99.90
57434;DHT22;43277;52.672;6.984;2023-02-12T03:10:48;6.80;99.90
57434;DHT22;43277;52.672;6.984;2023-02-12T03:13:33;6.90;99.90
57434;DHT22;43277;52.672;6.984;2023-02-12T03:16:11;6.90;99.90
57434;DHT22;43277;52.672;6.984;2023-02-12T03:18:45;6.90;99.90
57434;DHT22;43277;52.672;6.984;2023-02-12T03:21:17;6.90;99.90
57434;DHT22;43277;52.672;6.984;2023-02-12T03:23:54;6.90;99.90
57434;DHT22;43277;52.672;6.984;2023-02-12T03:26:27;7.00;99.90
57434;DHT22;43277;52.672;6.984;2023-02-12T03:28:53;6.90;99.90
57434;DHT22;43277;52.672;6.984;2023-02-12T03:37:02;6.90;99.90
57434;DHT22;43277;52.672;6.984;2023-02-12T03:39:49;6.90;99.90
57434;DHT22;43277;52.672;6.984;2023-02-12T03:45:52;6.90;99.90
57434;DHT22;43277;52.672;6.984;2023-02-12T03:48:33;6.90;99.90
57434;DHT22;43277;52.672;6.984;2023-02-12T03:53:30;6.80;99.90
57434;DHT22;43277;52.672;6.984;2023-02-12T03:56:03;6.80;99.90
57434;DHT22;43277;52.672;6.984;2023-02-12T03:58:32;6.80;99.90
57434;DHT22;43277;52.672;6.984;2023-02-12T04:00:59;6.90;99.90
57434;DHT22;43277;52.672;6.984;2023-02-12T04:03:25;6.80;99.90
57434;DHT22;43277;52.672;6.984;2023-02-12T04:05:51;6.80;99.90
57434;DHT22;43277;52.672;6.984;2023-02-12T04:08:17;6.80;99.90
57434;DHT22;43277;52.672;6.984;2023-02-12T04:11:09;6.80;99.90
57434;DHT22;43277;52.672;6.984;2023-02-12T04:16:31;6.80;99.90
57434;DHT22;43277;52.672;6.984;2023-02-12T04:18:59;6.80;99.90
57434;DHT22;43277;52.672;6.984;2023-02-12T04:21:59;6.70;99.90
57434;DHT22;43277;52.672;6.984;2023-02-12T04:24:43;6.80;99.90
57434;DHT22;43277;52.672;6.984;2023-02-12T04:30:20;6.70;99.90
57434;DHT22;43277;52.672;6.984;2023-02-12T04:32:50;6.70;99.90
57434;DHT22;43277;52.672;6.984;2023-02-12T04:35:26;6.70;99.90
57434;DHT22;43277;52.672;6.984;2023-02-12T04:40:27;6.80;99.90
57434;DHT22;43277;52.672;6.984;2023-02-12T04:42:52;6.70;99.90
57434;DHT22;43277;52.672;6.984;2023-02-12T04:45:27;6.80;99.90
57434;DHT22;43277;52.672;6.984;2023-02-12T04:47:53;6.80;99.90
57434;DHT22;43277;52.672;6.984;2023-02-12T04:50:19;6.80;99.90
57434;DHT22;43277;52.672;6.984;2023-02-12T04:52:45;6.80;99.90
57434;DHT22;43277;52.672;6.984;2023-02-12T04:55:11;6.80;99.90
57434;DHT22;43277;52.672;6.984;2023-02-12T04:57:37;6.80;99.90
57434;DHT22;43277;52.672;6.984;2023-02-12T05:00:04;6.80;99.90
57434;DHT22;43277;52.672;6.984;2023-02-12T05:02:32;6.80;99.90
57434;DHT22;43277;52.672;6.984;2023-02-12T05:04:58;6.80;99.90
57434;DHT22;43277;52.672;6.984;2023-02-12T05:07:23;6.80;99.90
57434;DHT22;43277;52.672;6.984;2023-02-12T05:09:49;6.80;99.90
57434;DHT22;43277;52.672;6.984;2023-02-12T05:12:14;6.80;99.90
57434;DHT22;43277;52.672;6.984;2023-02-12T05:14:40;6.90;99.90
57434;DHT22;43277;52.672;6.984;2023-02-12T05:17:06;6.90;99.90
57434;DHT22;43277;52.672;6.984;2023-02-12T05:19:31;6.80;99.90
57434;DHT22;43277;52.672;6.984;2023-02-12T05:21:57;6.80;99.90
57434;DHT22;43277;52.672;6.984;2023-02-12T05:24:22;6.80;99.90
57434;DHT22;43277;52.672;6.984;2023-02-12T05:26:49;6.80;99.90
57434;DHT22;43277;52.672;6.984;2023-02-12T05:29:14;6.70;99.90
57434;DHT22;43277;52.672;6.984;2023-02-12T05:31:40;6.70;99.90
57434;DHT22;43277;52.672;6.984;2023-02-12T05:34:07;6.70;99.90
57434;DHT22;43277;52.672;6.984;2023-02-12T05:36:34;6.70;99.90
57434;DHT22;43277;52.672;6.984;2023-02-12T05:38:59;6.60;99.90
57434;DHT22;43277;52.672;6.984;2023-02-12T05:41:25;6.60;99.90
57434;DHT22;43277;52.672;6.984;2023-02-12T05:43:51;6.60;99.90
57434;DHT22;43277;52.672;6.984;2023-02-12T05:46:19;6.60;99.90
57434;DHT22;43277;52.672;6.984;2023-02-12T05:48:45;6.60;99.90
57434;DHT22;43277;52.672;6.984;2023-02-12T05:51:13;6.60;99.90
57434;DHT22;43277;52.672;6.984;2023-02-12T05:53:40;6.60;99.90
57434;DHT22;43277;52.672;6.984;2023-02-12T05:56:11;6.60;99.90
57434;DHT22;43277;52.672;6.984;2023-02-12T05:58:39;6.60;99.90
57434;DHT22;43277;52.672;6.984;2023-02-12T06:01:20;6.60;99.90
57434;DHT22;43277;52.672;6.984;2023-02-12T06:03:46;6.50;99.90
57434;DHT22;43277;52.672;6.984;2023-02-12T06:06:12;6.50;99.90
57434;DHT22;43277;52.672;6.984;2023-02-12T06:08:38;6.50;99.90
57434;DHT22;43277;52.672;6.984;2023-02-12T06:11:06;6.50;99.90
57434;DHT22;43277;52.672;6.984;2023-02-12T06:13:33;6.50;99.90
57434;DHT22;43277;52.672;6.984;2023-02-12T06:15:59;6.50;99.90
57434;DHT22;43277;52.672;6.984;2023-02-12T06:18:26;6.40;99.90
57434;DHT22;43277;52.672;6.984;2023-02-12T06:20:52;6.50;99.90
57434;DHT22;43277;52.672;6.984;2023-02-12T06:23:20;6.40;99.90
57434;DHT22;43277;52.672;6.984;2023-02-12T06:25:47;6.50;99.90
57434;DHT22;43277;52.672;6.984;2023-02-12T06:28:12;6.40;99.90
57434;DHT22;43277;52.672;6.984;2023-02-12T06:30:38;6.40;99.90
57434;DHT22;43277;52.672;6.984;2023-02-12T06:33:03;6.40;99.90
57434;DHT22;43277;52.672;6.984;2023-02-12T06:35:29;6.40;99.90
57434;DHT22;43277;52.672;6.984;2023-02-12T06:37:55;6.40;99.90
57434;DHT22;43277;52.672;6.984;2023-02-12T06:40:20;6.40;99.90
57434;DHT22;43277;52.672;6.984;2023-02-12T06:42:46;6.40;99.90
57434;DHT22;43277;52.672;6.984;2023-02-12T06:45:12;6.30;99.90
57434;DHT22;43277;52.672;6.984;2023-02-12T06:47:37;6.30;99.90
57434;DHT22;43277;52.672;6.984;2023-02-12T06:50:03;6.40;99.90
57434;DHT22;43277;52.672;6.984;2023-02-12T06:52:29;6.40;99.90
57434;DHT22;43277;52.672;6.984;2023-02-12T06:54:54;6.40;99.90
57434;DHT22;43277;52.672;6.984;2023-02-12T06:57:20;6.40;99.90
57434;DHT22;43277;52.672;6.984;2023-02-12T06:59:46;6.40;99.90
57434;DHT22;43277;52.672;6.984;2023-02-12T07:02:11;6.40;99.90
57434;DHT22;43277;52.672;6.984;2023-02-12T07:04:37;6.40;99.90
57434;DHT22;43277;52.672;6.984;2023-02-12T07:07:04;6.30;99.90
57434;DHT22;43277;52.672;6.984;2023-02-12T07:09:30;6.40;99.90
57434;DHT22;43277;52.672;6.984;2023-02-12T07:11:59;6.30;99.90
57434;DHT22;43277;52.672;6.984;2023-02-12T07:14:25;6.40;99.90
57434;DHT22;43277;52.672;6.984;2023-02-12T07:16:53;6.40;99.90
57434;DHT22;43277;52.672;6.984;2023-02-12T07:19:19;6.40;99.90
57434;DHT22;43277;52.672;6.984;2023-02-12T07:21:45;6.30;99.90
57434;DHT22;43277;52.672;6.984;2023-02-12T07:24:11;6.40;99.90
57434;DHT22;43277;52.672;6.984;2023-02-12T07:26:38;6.40;99.90
57434;DHT22;43277;52.672;6.984;2023-02-12T07:29:04;6.40;99.90
57434;DHT22;43277;52.672;6.984;2023-02-12T07:31:30;6.40;99.90
57434;DHT22;43277;52.672;6.984;2023-02-12T07:33:57;6.40;99.90
57434;DHT22;43277;52.672;6.984;2023-02-12T07:36:25;6.40;99.90
57434;DHT22;43277;52.672;6.984;2023-02-12T07:38:50;6.50;99.90
57434;DHT22;43277;52.672;6.984;2023-02-12T07:41:22;6.50;99.90
57434;DHT22;43277;52.672;6.984;2023-02-12T07:43:52;6.50;99.90
57434;DHT22;43277;52.672;6.984;2023-02-12T07:46:24;6.50;99.90
57434;DHT22;43277;52.672;6.984;2023-02-12T07:48:54;6.50;99.90
57434;DHT22;43277;52.672;6.984;2023-02-12T07:51:20;6.50;99.90
57434;DHT22;43277;52.672;6.984;2023-02-12T07:53:47;6.50;99.90
57434;DHT22;43277;52.672;6.984;2023-02-12T07:56:15;6.50;99.90
57434;DHT22;43277;52.672;6.984;2023-02-12T07:58:42;6.50;99.90
57434;DHT22;43277;52.672;6.984;2023-02-12T08:04:10;6.60;99.90
57434;DHT22;43277;52.672;6.984;2023-02-12T08:06:38;6.60;99.90
57434;DHT22;43277;52.672;6.984;2023-02-12T08:09:07;6.60;99.90
57434;DHT22;43277;52.672;6.984;2023-02-12T08:11:34;6.60;99.90
57434;DHT22;43277;52.672;6.984;2023-02-12T08:14:01;6.60;99.90
57434;DHT22;43277;52.672;6.984;2023-02-12T08:16:28;6.70;99.90
57434;DHT22;43277;52.672;6.984;2023-02-12T08:18:55;6.70;99.90
57434;DHT22;43277;52.672;6.984;2023-02-12T08:21:26;6.70;99.90
57434;DHT22;43277;52.672;6.984;2023-02-12T08:23:56;6.70;99.90
57434;DHT22;43277;52.672;6.984;2023-02-12T08:28:56;6.80;99.90
57434;DHT22;43277;52.672;6.984;2023-02-12T08:31:25;6.80;99.90
57434;DHT22;43277;52.672;6.984;2023-02-12T08:33:52;6.90;99.90
57434;DHT22;43277;52.672;6.984;2023-02-12T08:36:29;6.90;99.90
57434;DHT22;43277;52.672;6.984;2023-02-12T08:38:58;6.90;99.90
57434;DHT22;43277;52.672;6.984;2023-02-12T08:41:27;6.90;99.90
57434;DHT22;43277;52.672;6.984;2023-02-12T08:43:56;7.00;99.90
57434;DHT22;43277;52.672;6.984;2023-02-12T08:46:31;7.00;99.90
57434;DHT22;43277;52.672;6.984;2023-02-12T08:49:02;7.10;99.90
57434;DHT22;43277;52.672;6.984;2023-02-12T08:51:33;7.10;99.90
57434;DHT22;43277;52.672;6.984;2023-02-12T08:54:02;7.20;99.90
57434;DHT22;43277;52.672;6.984;2023-02-12T08:56:29;7.20;99.90
57434;DHT22;43277;52.672;6.984;2023-02-12T08:58:57;7.30;99.90
57434;DHT22;43277;52.672;6.984;2023-02-12T09:01:25;7.40;99.90
57434;DHT22;43277;52.672;6.984;2023-02-12T09:03:51;7.50;99.90
57434;DHT22;43277;52.672;6.984;2023-02-12T09:06:19;7.50;99.90
57434;DHT22;43277;52.672;6.984;2023-02-12T09:08:45;7.50;99.90
57434;DHT22;43277;52.672;6.984;2023-02-12T09:11:15;7.50;99.90
57434;DHT22;43277;52.672;6.984;2023-02-12T09:13:43;7.50;99.90
57434;DHT22;43277;52.672;6.984;2023-02-12T09:16:09;7.50;99.90
57434;DHT22;43277;52.672;6.984;2023-02-12T09:18:35;7.50;99.90
57434;DHT22;43277;52.672;6.984;2023-02-12T09:21:12;7.60;99.90
57434;DHT22;43277;52.672;6.984;2023-02-12T09:23:39;7.60;99.90
57434;DHT22;43277;52.672;6.984;2023-02-12T09:26:11;7.60;99.90
57434;DHT22;43277;52.672;6.984;2023-02-12T09:28:37;7.60;99.90
57434;DHT22;43277;52.672;6.984;2023-02-12T09:31:11;7.60;99.90
57434;DHT22;43277;52.672;6.984;2023-02-12T09:33:37;7.80;99.90
57434;DHT22;43277;52.672;6.984;2023-02-12T09:36:05;7.80;99.90
57434;DHT22;43277;52.672;6.984;2023-02-12T09:38:32;7.90;99.90
57434;DHT22;43277;52.672;6.984;2023-02-12T09:41:23;7.90;99.90
57434;DHT22;43277;52.672;6.984;2023-02-12T09:44:06;8.10;99.90
57434;DHT22;43277;52.672;6.984;2023-02-12T09:46:57;8.20;99.90
57434;DHT22;43277;52.672;6.984;2023-02-12T09:51:58;8.20;99.90
57434;DHT22;43277;52.672;6.984;2023-02-12T09:54:31;8.20;99.90
57434;DHT22;43277;52.672;6.984;2023-02-12T09:57:00;8.10;99.90
57434;DHT22;43277;52.672;6.984;2023-02-12T09:59:43;8.20;99.90
57434;DHT22;43277;52.672;6.984;2023-02-12T10:02:17;8.30;99.90
57434;DHT22;43277;52.672;6.984;2023-02-12T10:04:45;8.40;99.90
57434;DHT22;43277;52.672;6.984;2023-02-12T10:12:43;8.60;99.90
57434;DHT22;43277;52.672;6.984;2023-02-12T10:26:12;8.90;99.90
57434;DHT22;43277;52.672;6.984;2023-02-12T10:28:42;9.20;99.90
57434;DHT22;43277;52.672;6.984;2023-02-12T10:31:28;9.30;99.90
57434;DHT22;43277;52.672;6.984;2023-02-12T10:33:55;9.50;99.90
57434;DHT22;43277;52.672;6.984;2023-02-12T10:36:43;9.70;99.90
57434;DHT22;43277;52.672;6.984;2023-02-12T10:41:44;9.70;99.90
57434;DHT22;43277;52.672;6.984;2023-02-12T10:44:11;9.70;99.90
57434;DHT22;43277;52.672;6.984;2023-02-12T10:46:37;9.70;99.90
57434;DHT22;43277;52.672;6.984;2023-02-12T10:49:04;9.70;99.90
57434;DHT22;43277;52.672;6.984;2023-02-12T10:51:57;9.80;99.90
57434;DHT22;43277;52.672;6.984;2023-02-12T10:57:16;9.80;99.90
57434;DHT22;43277;52.672;6.984;2023-02-12T10:59:44;9.80;99.90
57434;DHT22;43277;52.672;6.984;2023-02-12T11:02:28;9.80;99.90
57434;DHT22;43277;52.672;6.984;2023-02-12T11:04:55;9.90;99.90
57434;DHT22;43277;52.672;6.984;2023-02-12T11:07:22;9.90;99.90
57434;DHT22;43277;52.672;6.984;2023-02-12T11:09:51;9.90;99.90
57434;DHT22;43277;52.672;6.984;2023-02-12T11:12:23;9.90;99.90
57434;DHT22;43277;52.672;6.984;2023-02-12T11:14:52;10.00;99.90
57434;DHT22;43277;52.672;6.984;2023-02-12T11:17:29;9.90;99.90
57434;DHT22;43277;52.672;6.984;2023-02-12T11:25:24;10.10;99.90
57434;DHT22;43277;52.672;6.984;2023-02-12T11:28:18;10.20;99.90
57434;DHT22;43277;52.672;6.984;2023-02-12T11:38:26;10.60;99.90
57434;DHT22;43277;52.672;6.984;2023-02-12T11:40:56;10.70;99.90
57434;DHT22;43277;52.672;6.984;2023-02-12T11:43:23;10.80;99.90
57434;DHT22;43277;52.672;6.984;2023-02-12T11:45:51;10.80;99.90
57434;DHT22;43277;52.672;6.984;2023-02-12T11:50:58;10.90;99.90
57434;DHT22;43277;52.672;6.984;2023-02-12T11:53:32;10.80;99.90
57434;DHT22;43277;52.672;6.984;2023-02-12T11:56:01;10.90;99.90
57434;DHT22;43277;52.672;6.984;2023-02-12T11:58:28;10.90;99.90
57434;DHT22;43277;52.672;6.984;2023-02-12T12:06:39;10.70;99.90
57434;DHT22;43277;52.672;6.984;2023-02-12T12:09:33;10.70;99.90
57434;DHT22;43277;52.672;6.984;2023-02-12T12:12:12;10.60;99.90
57434;DHT22;43277;52.672;6.984;2023-02-12T12:17:49;10.40;99.90
57434;DHT22;43277;52.672;6.984;2023-02-12T12:21:13;10.30;99.90
57434;DHT22;43277;52.672;6.984;2023-02-12T12:23:34;10.30;99.90
57434;DHT22;43277;52.672;6.984;2023-02-12T12:26:07;10.40;99.90
57434;DHT22;43277;52.672;6.984;2023-02-12T12:28:53;10.30;99.90
57434;DHT22;43277;52.672;6.984;2023-02-12T12:31:31;10.30;99.90
57434;DHT22;43277;52.672;6.984;2023-02-12T12:34:18;10.30;99.90
57434;DHT22;43277;52.672;6.984;2023-02-12T12:45:24;10.30;99.90
57434;DHT22;43277;52.672;6.984;2023-02-12T12:50:53;10.10;99.90
57434;DHT22;43277;52.672;6.984;2023-02-12T12:53:53;10.20;99.90
57434;DHT22;43277;52.672;6.984;2023-02-12T12:59:46;10.10;99.90
57434;DHT22;43277;52.672;6.984;2023-02-12T13:07:58;10.30;99.90
57434;DHT22;43277;52.672;6.984;2023-02-12T13:10:38;10.10;99.90
57434;DHT22;43277;52.672;6.984;2023-02-12T13:13:32;10.20;99.90
57434;DHT22;43277;52.672;6.984;2023-02-12T13:19:10;10.00;99.90
57434;DHT22;43277;52.672;6.984;2023-02-12T13:24:45;10.00;99.90
57434;DHT22;43277;52.672;6.984;2023-02-12T13:27:19;10.10;99.90
57434;DHT22;43277;52.672;6.984;2023-02-12T13:29:50;10.10;99.90
57434;DHT22;43277;52.672;6.984;2023-02-12T13:32:26;10.00;99.90
57434;DHT22;43277;52.672;6.984;2023-02-12T13:34:54;10.00;99.90
57434;DHT22;43277;52.672;6.984;2023-02-12T13:37:34;10.00;99.90
57434;DHT22;43277;52.672;6.984;2023-02-12T13:40:04;10.00;99.90
57434;DHT22;43277;52.672;6.984;2023-02-12T13:45:35;10.10;99.90
57434;DHT22;43277;52.672;6.984;2023-02-12T13:51:14;9.90;99.90
57434;DHT22;43277;52.672;6.984;2023-02-12T13:56:51;10.00;99.90
57434;DHT22;43277;52.672;6.984;2023-02-12T14:04:46;9.90;99.90
57434;DHT22;43277;52.672;6.984;2023-02-12T14:07:15;9.90;99.90
57434;DHT22;43277;52.672;6.984;2023-02-12T14:14:51;9.90;99.90
57434;DHT22;43277;52.672;6.984;2023-02-12T14:27:56;9.90;99.90
57434;DHT22;43277;52.672;6.984;2023-02-12T14:30:37;9.90;99.90
57434;DHT22;43277;52.672;6.984;2023-02-12T14:35:35;9.90;99.90
57434;DHT22;43277;52.672;6.984;2023-02-12T14:43:36;9.90;99.90
57434;DHT22;43277;52.672;6.984;2023-02-12T14:48:54;9.80;99.90
57434;DHT22;43277;52.672;6.984;2023-02-12T14:54:02;9.80;99.90
57434;DHT22;43277;52.672;6.984;2023-02-12T14:56:34;9.80;99.90
57434;DHT22;43277;52.672;6.984;2023-02-12T14:59:05;9.80;99.90
57434;DHT22;43277;52.672;6.984;2023-02-12T15:01:33;9.80;99.90
57434;DHT22;43277;52.672;6.984;2023-02-12T15:04:10;9.80;99.90
57434;DHT22;43277;52.672;6.984;2023-02-12T15:06:57;9.80;99.90
57434;DHT22;43277;52.672;6.984;2023-02-12T15:09:41;9.80;99.90
57434;DHT22;43277;52.672;6.984;2023-02-12T15:12:18;9.70;99.90
57434;DHT22;43277;52.672;6.984;2023-02-12T15:14:49;9.60;99.90
57434;DHT22;43277;52.672;6.984;2023-02-12T15:17:20;9.60;99.90
57434;DHT22;43277;52.672;6.984;2023-02-12T15:19:52;9.60;99.90
57434;DHT22;43277;52.672;6.984;2023-02-12T15:22:29;9.60;99.90
57434;DHT22;43277;52.672;6.984;2023-02-12T15:25:25;9.60;99.90
57434;DHT22;43277;52.672;6.984;2023-02-12T15:27:54;9.60;99.90
57434;DHT22;43277;52.672;6.984;2023-02-12T15:30:24;9.60;99.90
57434;DHT22;43277;52.672;6.984;2023-02-12T15:32:51;9.50;99.90
57434;DHT22;43277;52.672;6.984;2023-02-12T15:35:29;9.50;99.90
57434;DHT22;43277;52.672;6.984;2023-02-12T15:37:56;9.50;99.90
57434;DHT22;43277;52.672;6.984;2023-02-12T15:40:24;9.50;99.90
57434;DHT22;43277;52.672;6.984;2023-02-12T15:42:57;9.50;99.90
57434;DHT22;43277;52.672;6.984;2023-02-12T15:45:24;9.50;99.90
57434;DHT22;43277;52.672;6.984;2023-02-12T15:48:22;9.50;99.90
57434;DHT22;43277;52.672;6.984;2023-02-12T15:53:31;9.40;99.90
57434;DHT22;43277;52.672;6.984;2023-02-12T15:55:58;9.40;99.90
57434;DHT22;43277;52.672;6.984;2023-02-12T15:58:28;9.40;99.90
57434;DHT22;43277;52.672;6.984;2023-02-12T16:00:59;9.40;99.90
57434;DHT22;43277;52.672;6.984;2023-02-12T16:03:30;9.40;99.90
57434;DHT22;43277;52.672;6.984;2023-02-12T16:06:06;9.40;99.90
57434;DHT22;43277;52.672;6.984;2023-02-12T16:08:37;9.30;99.90
57434;DHT22;43277;52.672;6.984;2023-02-12T16:11:03;9.30;99.90
57434;DHT22;43277;52.672;6.984;2023-02-12T16:13:46;9.30;99.90
57434;DHT22;43277;52.672;6.984;2023-02-12T16:18:42;9.20;99.90
57434;DHT22;43277;52.672;6.984;2023-02-12T16:21:19;9.20;99.90
57434;DHT22;43277;52.672;6.984;2023-02-12T16:23:49;9.30;99.90
57434;DHT22;43277;52.672;6.984;2023-02-12T16:26:17;9.20;99.90
57434;DHT22;43277;52.672;6.984;2023-02-12T16:28:46;9.20;99.90
57434;DHT22;43277;52.672;6.984;2023-02-12T16:31:14;9.20;99.90
57434;DHT22;43277;52.672;6.984;2023-02-12T16:36:24;9.20;99.90
57434;DHT22;43277;52.672;6.984;2023-02-12T16:39:02;9.10;99.90
57434;DHT22;43277;52.672;6.984;2023-02-12T16:41:30;9.10;99.90
57434;DHT22;43277;52.672;6.984;2023-02-12T16:46:29;9.10;99.90
57434;DHT22;43277;52.672;6.984;2023-02-12T16:48:56;9.00;99.90
57434;DHT22;43277;52.672;6.984;2023-02-12T16:51:29;9.00;99.90
57434;DHT22;43277;52.672;6.984;2023-02-12T16:53:57;9.00;99.90
57434;DHT22;43277;52.672;6.984;2023-02-12T16:56:25;8.90;99.90
57434;DHT22;43277;52.672;6.984;2023-02-12T16:58:53;9.00;99.90
57434;DHT22;43277;52.672;6.984;2023-02-12T17:01:29;9.00;99.90
57434;DHT22;43277;52.672;6.984;2023-02-12T17:03:56;9.00;99.90
57434;DHT22;43277;52.672;6.984;2023-02-12T17:06:28;8.90;99.90
57434;DHT22;43277;52.672;6.984;2023-02-12T17:08:54;8.90;99.90
57434;DHT22;43277;52.672;6.984;2023-02-12T17:11:20;8.90;99.90
57434;DHT22;43277;52.672;6.984;2023-02-12T17:13:48;8.80;99.90
57434;DHT22;43277;52.672;6.984;2023-02-12T17:16:15;8.90;99.90
57434;DHT22;43277;52.672;6.984;2023-02-12T17:18:41;8.80;99.90
57434;DHT22;43277;52.672;6.984;2023-02-12T17:21:20;8.80;99.90
57434;DHT22;43277;52.672;6.984;2023-02-12T17:23:49;8.80;99.90
57434;DHT22;43277;52.672;6.984;2023-02-12T17:26:14;8.80;99.90
57434;DHT22;43277;52.672;6.984;2023-02-12T17:28:40;8.70;99.90
57434;DHT22;43277;52.672;6.984;2023-02-12T17:31:07;8.70;99.90
57434;DHT22;43277;52.672;6.984;2023-02-12T17:33:33;8.70;99.90
57434;DHT22;43277;52.672;6.984;2023-02-12T17:35:58;8.70;99.90
57434;DHT22;43277;52.672;6.984;2023-02-12T17:38:24;8.60;99.90
57434;DHT22;43277;52.672;6.984;2023-02-12T17:40:50;8.60;99.90
57434;DHT22;43277;52.672;6.984;2023-02-12T17:43:15;8.60;99.90
57434;DHT22;43277;52.672;6.984;2023-02-12T17:45:41;8.60;99.90
57434;DHT22;43277;52.672;6.984;2023-02-12T17:48:11;8.60;99.90
57434;DHT22;43277;52.672;6.984;2023-02-12T17:50:37;8.60;99.90
57434;DHT22;43277;52.672;6.984;2023-02-12T17:53:03;8.60;99.90
57434;DHT22;43277;52.672;6.984;2023-02-12T17:55:29;8.60;99.90
57434;DHT22;43277;52.672;6.984;2023-02-12T17:57:55;8.60;99.90
57434;DHT22;43277;52.672;6.984;2023-02-12T18:00:21;8.50;99.90
57434;DHT22;43277;52.672;6.984;2023-02-12T18:02:48;8.50;99.90
57434;DHT22;43277;52.672;6.984;2023-02-12T18:05:14;8.50;99.90
57434;DHT22;43277;52.672;6.984;2023-02-12T18:07:40;8.50;99.90
57434;DHT22;43277;52.672;6.984;2023-02-12T18:10:07;8.50;99.90
57434;DHT22;43277;52.672;6.984;2023-02-12T18:12:33;8.50;99.90
57434;DHT22;43277;52.672;6.984;2023-02-12T18:15:01;8.50;99.90
57434;DHT22;43277;52.672;6.984;2023-02-12T18:17:27;8.50;99.90
57434;DHT22;43277;52.672;6.984;2023-02-12T18:19:53;8.50;99.90
57434;DHT22;43277;52.672;6.984;2023-02-12T18:22:20;8.50;99.90
57434;DHT22;43277;52.672;6.984;2023-02-12T18:24:45;8.50;99.90
57434;DHT22;43277;52.672;6.984;2023-02-12T18:27:12;8.50;99.90
57434;DHT22;43277;52.672;6.984;2023-02-12T18:29:39;8.50;99.90
57434;DHT22;43277;52.672;6.984;2023-02-12T18:32:05;8.50;99.90
57434;DHT22;43277;52.672;6.984;2023-02-12T18:34:31;8.50;99.90
57434;DHT22;43277;52.672;6.984;2023-02-12T18:36:57;8.60;99.90
57434;DHT22;43277;52.672;6.984;2023-02-12T18:39:22;8.50;99.90
57434;DHT22;43277;52.672;6.984;2023-02-12T18:41:48;8.60;99.90
57434;DHT22;43277;52.672;6.984;2023-02-12T18:44:14;8.50;99.90
57434;DHT22;43277;52.672;6.984;2023-02-12T18:46:40;8.50;99.90
57434;DHT22;43277;52.672;6.984;2023-02-12T18:49:06;8.50;99.90
57434;DHT22;43277;52.672;6.984;2023-02-12T18:51:32;8.40;99.90
57434;DHT22;43277;52.672;6.984;2023-02-12T18:54:03;8.40;99.90
57434;DHT22;43277;52.672;6.984;2023-02-12T18:56:30;8.50;99.90